sensor_id;sensor_type;location;lat;lon;timestamp;P1;durP1;ratioP1;P2;durP2;ratioP2
53036;SDS011;38924;52.134;4.666;2022-10-16T00:01:27;26.52;;;24.85;;
53036;SDS011;38924;52.134;4.666;2022-10-16T00:03:56;28.70;;;26.20;;
53036;SDS011;38924;52.134;4.666;2022-10-16T00:06:22;26.95;;;25.05;;
53036;SDS011;38924;52.134;4.666;2022-10-16T00:08:48;31.50;;;28.85;;
53036;SDS011;38924;52.134;4.666;2022-10-16T00:11:15;29.33;;;27.17;;
53036;SDS011;38924;52.134;4.666;2022-10-16T00:13:42;28.75;;;26.90;;
53036;SDS011;38924;52.134;4.666;2022-10-16T00:16:10;27.02;;;25.05;;
53036;SDS011;38924;52.134;4.666;2022-10-16T00:18:36;29.80;;;27.80;;
53036;SDS011;38924;52.134;4.666;2022-10-16T00:21:05;30.80;;;28.77;;
53036;SDS011;38924;52.134;4.666;2022-10-16T00:23:31;30.15;;;28.02;;
53036;SDS011;38924;52.134;4.666;2022-10-16T00:25:58;25.08;;;23.23;;
53036;SDS011;38924;52.134;4.666;2022-10-16T00:28:24;28.35;;;26.48;;
53036;SDS011;38924;52.134;4.666;2022-10-16T00:30:49;29.67;;;27.77;;
53036;SDS011;38924;52.134;4.666;2022-10-16T00:33:15;25.40;;;23.73;;
53036;SDS011;38924;52.134;4.666;2022-10-16T00:35:41;27.90;;;26.02;;
53036;SDS011;38924;52.134;4.666;2022-10-16T00:38:07;28.67;;;26.60;;
53036;SDS011;38924;52.134;4.666;2022-10-16T00:40:33;25.48;;;23.60;;
53036;SDS011;38924;52.134;4.666;2022-10-16T00:42:58;28.13;;;26.35;;
53036;SDS011;38924;52.134;4.666;2022-10-16T00:45:24;29.27;;;26.95;;
53036;SDS011;38924;52.134;4.666;2022-10-16T00:47:50;27.80;;;26.10;;
53036;SDS011;38924;52.134;4.666;2022-10-16T00:50:27;28.13;;;26.23;;
53036;SDS011;38924;52.134;4.666;2022-10-16T00:52:53;30.83;;;28.65;;
53036;SDS011;38924;52.134;4.666;2022-10-16T00:55:20;27.45;;;25.60;;
53036;SDS011;38924;52.134;4.666;2022-10-16T00:57:46;27.17;;;25.48;;
53036;SDS011;38924;52.134;4.666;2022-10-16T01:00:13;30.30;;;28.30;;
53036;SDS011;38924;52.134;4.666;2022-10-16T01:02:39;28.33;;;26.38;;
53036;SDS011;38924;52.134;4.666;2022-10-16T01:05:05;27.30;;;25.27;;
53036;SDS011;38924;52.134;4.666;2022-10-16T01:10:02;29.42;;;27.63;;
53036;SDS011;38924;52.134;4.666;2022-10-16T01:28:22;23.60;;;22.08;;
53036;SDS011;38924;52.134;4.666;2022-10-16T01:30:50;26.63;;;24.98;;
53036;SDS011;38924;52.134;4.666;2022-10-16T01:33:22;26.27;;;24.40;;
53036;SDS011;38924;52.134;4.666;2022-10-16T01:35:56;24.70;;;22.77;;
53036;SDS011;38924;52.134;4.666;2022-10-16T01:38:29;25.67;;;24.05;;
53036;SDS011;38924;52.134;4.666;2022-10-16T01:40:58;27.92;;;25.80;;
53036;SDS011;38924;52.134;4.666;2022-10-16T01:43:26;27.13;;;25.58;;
53036;SDS011;38924;52.134;4.666;2022-10-16T01:45:54;28.58;;;26.42;;
53036;SDS011;38924;52.134;4.666;2022-10-16T01:48:20;30.48;;;28.13;;
53036;SDS011;38924;52.134;4.666;2022-10-16T01:50:56;28.77;;;27.00;;
53036;SDS011;38924;52.134;4.666;2022-10-16T01:53:22;27.95;;;26.00;;
53036;SDS011;38924;52.134;4.666;2022-10-16T01:55:49;29.67;;;27.60;;
53036;SDS011;38924;52.134;4.666;2022-10-16T01:58:15;30.90;;;27.52;;
53036;SDS011;38924;52.134;4.666;2022-10-16T02:00:42;32.13;;;30.17;;
53036;SDS011;38924;52.134;4.666;2022-10-16T02:03:09;34.45;;;32.33;;
53036;SDS011;38924;52.134;4.666;2022-10-16T02:05:41;29.55;;;27.52;;
53036;SDS011;38924;52.134;4.666;2022-10-16T02:08:07;28.15;;;26.38;;
53036;SDS011;38924;52.134;4.666;2022-10-16T02:10:34;30.27;;;28.38;;
53036;SDS011;38924;52.134;4.666;2022-10-16T02:13:04;31.45;;;29.50;;
53036;SDS011;38924;52.134;4.666;2022-10-16T02:15:31;31.48;;;29.17;;
53036;SDS011;38924;52.134;4.666;2022-10-16T02:17:57;31.70;;;29.77;;
53036;SDS011;38924;52.134;4.666;2022-10-16T02:20:25;29.70;;;27.90;;
53036;SDS011;38924;52.134;4.666;2022-10-16T02:22:51;32.60;;;30.20;;
53036;SDS011;38924;52.134;4.666;2022-10-16T02:25:19;36.30;;;34.13;;
53036;SDS011;38924;52.134;4.666;2022-10-16T02:28:04;31.70;;;29.35;;
53036;SDS011;38924;52.134;4.666;2022-10-16T02:30:34;31.20;;;29.00;;
53036;SDS011;38924;52.134;4.666;2022-10-16T02:33:04;30.55;;;28.48;;
53036;SDS011;38924;52.134;4.666;2022-10-16T02:35:31;29.73;;;27.83;;
53036;SDS011;38924;52.134;4.666;2022-10-16T02:37:57;36.30;;;34.00;;
53036;SDS011;38924;52.134;4.666;2022-10-16T02:40:23;33.28;;;31.23;;
53036;SDS011;38924;52.134;4.666;2022-10-16T02:42:50;33.58;;;31.33;;
53036;SDS011;38924;52.134;4.666;2022-10-16T02:45:17;35.78;;;32.90;;
53036;SDS011;38924;52.134;4.666;2022-10-16T02:47:42;30.55;;;28.67;;
53036;SDS011;38924;52.134;4.666;2022-10-16T02:50:08;34.00;;;31.75;;
53036;SDS011;38924;52.134;4.666;2022-10-16T02:52:34;31.52;;;29.00;;
53036;SDS011;38924;52.134;4.666;2022-10-16T02:54:59;33.15;;;30.95;;
53036;SDS011;38924;52.134;4.666;2022-10-16T02:57:25;34.60;;;32.55;;
53036;SDS011;38924;52.134;4.666;2022-10-16T02:59:51;33.50;;;31.20;;
53036;SDS011;38924;52.134;4.666;2022-10-16T03:02:17;35.45;;;33.10;;
53036;SDS011;38924;52.134;4.666;2022-10-16T03:04:42;31.75;;;29.75;;
53036;SDS011;38924;52.134;4.666;2022-10-16T03:07:08;34.30;;;31.70;;
53036;SDS011;38924;52.134;4.666;2022-10-16T03:09:34;34.15;;;31.88;;
53036;SDS011;38924;52.134;4.666;2022-10-16T03:11:59;32.53;;;30.30;;
53036;SDS011;38924;52.134;4.666;2022-10-16T03:14:25;33.50;;;30.75;;
53036;SDS011;38924;52.134;4.666;2022-10-16T03:16:51;35.65;;;33.00;;
53036;SDS011;38924;52.134;4.666;2022-10-16T03:19:17;33.63;;;31.52;;
53036;SDS011;38924;52.134;4.666;2022-10-16T03:21:43;32.67;;;30.63;;
53036;SDS011;38924;52.134;4.666;2022-10-16T03:24:08;30.45;;;28.27;;
53036;SDS011;38924;52.134;4.666;2022-10-16T03:26:34;33.20;;;31.08;;
53036;SDS011;38924;52.134;4.666;2022-10-16T03:29:00;29.67;;;27.67;;
53036;SDS011;38924;52.134;4.666;2022-10-16T03:31:27;31.30;;;29.25;;
53036;SDS011;38924;52.134;4.666;2022-10-16T03:33:53;32.03;;;29.98;;
53036;SDS011;38924;52.134;4.666;2022-10-16T03:36:19;34.13;;;31.92;;
53036;SDS011;38924;52.134;4.666;2022-10-16T03:38:44;29.40;;;27.52;;
53036;SDS011;38924;52.134;4.666;2022-10-16T03:41:10;31.58;;;29.58;;
53036;SDS011;38924;52.134;4.666;2022-10-16T03:43:36;31.83;;;29.70;;
53036;SDS011;38924;52.134;4.666;2022-10-16T03:46:01;33.67;;;31.60;;
53036;SDS011;38924;52.134;4.666;2022-10-16T03:48:27;30.73;;;28.30;;
53036;SDS011;38924;52.134;4.666;2022-10-16T03:50:53;32.85;;;30.67;;
53036;SDS011;38924;52.134;4.666;2022-10-16T03:53:18;35.22;;;32.90;;
53036;SDS011;38924;52.134;4.666;2022-10-16T03:55:44;31.48;;;28.73;;
53036;SDS011;38924;52.134;4.666;2022-10-16T03:58:10;31.83;;;29.83;;
53036;SDS011;38924;52.134;4.666;2022-10-16T04:00:36;31.58;;;29.30;;
53036;SDS011;38924;52.134;4.666;2022-10-16T04:03:05;34.20;;;31.83;;
53036;SDS011;38924;52.134;4.666;2022-10-16T04:05:30;32.05;;;30.05;;
53036;SDS011;38924;52.134;4.666;2022-10-16T04:07:56;29.98;;;28.05;;
53036;SDS011;38924;52.134;4.666;2022-10-16T04:10:21;31.05;;;29.05;;
53036;SDS011;38924;52.134;4.666;2022-10-16T04:12:47;32.58;;;30.55;;
53036;SDS011;38924;52.134;4.666;2022-10-16T04:15:13;30.40;;;28.48;;
53036;SDS011;38924;52.134;4.666;2022-10-16T04:17:41;29.83;;;27.13;;
53036;SDS011;38924;52.134;4.666;2022-10-16T04:20:07;34.88;;;32.75;;
53036;SDS011;38924;52.134;4.666;2022-10-16T04:22:32;33.17;;;30.80;;
53036;SDS011;38924;52.134;4.666;2022-10-16T04:24:58;31.80;;;29.77;;
53036;SDS011;38924;52.134;4.666;2022-10-16T04:27:24;30.77;;;28.85;;
53036;SDS011;38924;52.134;4.666;2022-10-16T04:29:49;32.42;;;30.10;;
53036;SDS011;38924;52.134;4.666;2022-10-16T04:32:15;32.75;;;30.52;;
53036;SDS011;38924;52.134;4.666;2022-10-16T04:34:41;30.92;;;29.00;;
53036;SDS011;38924;52.134;4.666;2022-10-16T04:37:07;31.23;;;29.20;;
53036;SDS011;38924;52.134;4.666;2022-10-16T04:39:32;33.30;;;31.00;;
53036;SDS011;38924;52.134;4.666;2022-10-16T04:41:58;34.10;;;31.48;;
53036;SDS011;38924;52.134;4.666;2022-10-16T04:44:23;33.08;;;31.00;;
53036;SDS011;38924;52.134;4.666;2022-10-16T04:46:52;34.33;;;32.00;;
53036;SDS011;38924;52.134;4.666;2022-10-16T04:49:18;32.33;;;30.15;;
53036;SDS011;38924;52.134;4.666;2022-10-16T04:51:43;30.65;;;28.75;;
53036;SDS011;38924;52.134;4.666;2022-10-16T04:54:09;32.45;;;30.35;;
53036;SDS011;38924;52.134;4.666;2022-10-16T04:56:35;33.60;;;31.58;;
53036;SDS011;38924;52.134;4.666;2022-10-16T04:59:08;36.33;;;33.65;;
53036;SDS011;38924;52.134;4.666;2022-10-16T05:01:34;38.53;;;35.97;;
53036;SDS011;38924;52.134;4.666;2022-10-16T05:04:00;39.40;;;36.60;;
53036;SDS011;38924;52.134;4.666;2022-10-16T05:06:26;36.70;;;34.08;;
53036;SDS011;38924;52.134;4.666;2022-10-16T05:08:51;39.00;;;36.15;;
53036;SDS011;38924;52.134;4.666;2022-10-16T05:11:17;32.95;;;31.00;;
53036;SDS011;38924;52.134;4.666;2022-10-16T05:13:43;35.45;;;33.30;;
53036;SDS011;38924;52.134;4.666;2022-10-16T05:16:08;34.17;;;31.92;;
53036;SDS011;38924;52.134;4.666;2022-10-16T05:18:34;37.30;;;34.55;;
53036;SDS011;38924;52.134;4.666;2022-10-16T05:20:59;40.13;;;37.50;;
53036;SDS011;38924;52.134;4.666;2022-10-16T05:23:28;37.47;;;34.25;;
53036;SDS011;38924;52.134;4.666;2022-10-16T05:25:55;39.15;;;36.55;;
53036;SDS011;38924;52.134;4.666;2022-10-16T05:28:26;35.50;;;33.20;;
53036;SDS011;38924;52.134;4.666;2022-10-16T05:30:53;36.72;;;34.35;;
53036;SDS011;38924;52.134;4.666;2022-10-16T05:33:22;35.15;;;32.28;;
53036;SDS011;38924;52.134;4.666;2022-10-16T05:35:50;36.55;;;33.50;;
53036;SDS011;38924;52.134;4.666;2022-10-16T05:38:16;38.83;;;36.05;;
53036;SDS011;38924;52.134;4.666;2022-10-16T05:40:42;41.45;;;38.45;;
53036;SDS011;38924;52.134;4.666;2022-10-16T05:43:08;40.15;;;37.25;;
53036;SDS011;38924;52.134;4.666;2022-10-16T05:45:34;40.67;;;37.75;;
53036;SDS011;38924;52.134;4.666;2022-10-16T05:48:00;45.88;;;42.67;;
53036;SDS011;38924;52.134;4.666;2022-10-16T05:50:26;41.13;;;38.20;;
53036;SDS011;38924;52.134;4.666;2022-10-16T05:52:52;48.63;;;45.42;;
53036;SDS011;38924;52.134;4.666;2022-10-16T05:55:18;47.30;;;43.45;;
53036;SDS011;38924;52.134;4.666;2022-10-16T05:57:43;43.60;;;40.45;;
53036;SDS011;38924;52.134;4.666;2022-10-16T06:00:09;47.40;;;44.03;;
53036;SDS011;38924;52.134;4.666;2022-10-16T06:02:41;48.42;;;45.25;;
53036;SDS011;38924;52.134;4.666;2022-10-16T06:05:06;50.63;;;47.05;;
53036;SDS011;38924;52.134;4.666;2022-10-16T06:07:35;49.83;;;46.22;;
53036;SDS011;38924;52.134;4.666;2022-10-16T06:10:01;51.25;;;47.13;;
53036;SDS011;38924;52.134;4.666;2022-10-16T06:12:26;50.10;;;46.22;;
53036;SDS011;38924;52.134;4.666;2022-10-16T06:14:52;46.20;;;42.80;;
53036;SDS011;38924;52.134;4.666;2022-10-16T06:17:18;47.45;;;44.17;;
53036;SDS011;38924;52.134;4.666;2022-10-16T06:19:43;48.25;;;44.80;;
53036;SDS011;38924;52.134;4.666;2022-10-16T06:22:09;51.03;;;47.03;;
53036;SDS011;38924;52.134;4.666;2022-10-16T06:24:35;47.60;;;44.30;;
53036;SDS011;38924;52.134;4.666;2022-10-16T06:27:03;53.65;;;49.67;;
53036;SDS011;38924;52.134;4.666;2022-10-16T06:29:29;45.60;;;41.83;;
53036;SDS011;38924;52.134;4.666;2022-10-16T06:31:55;45.10;;;41.88;;
53036;SDS011;38924;52.134;4.666;2022-10-16T06:34:21;47.58;;;44.30;;
53036;SDS011;38924;52.134;4.666;2022-10-16T06:36:46;45.28;;;41.78;;
53036;SDS011;38924;52.134;4.666;2022-10-16T06:39:12;42.45;;;39.00;;
53036;SDS011;38924;52.134;4.666;2022-10-16T06:41:38;44.88;;;41.90;;
53036;SDS011;38924;52.134;4.666;2022-10-16T06:44:14;36.33;;;33.67;;
53036;SDS011;38924;52.134;4.666;2022-10-16T06:46:40;44.80;;;41.58;;
53036;SDS011;38924;52.134;4.666;2022-10-16T06:49:06;43.05;;;39.85;;
53036;SDS011;38924;52.134;4.666;2022-10-16T06:51:34;45.17;;;42.00;;
53036;SDS011;38924;52.134;4.666;2022-10-16T06:54:01;38.47;;;35.65;;
53036;SDS011;38924;52.134;4.666;2022-10-16T06:56:27;38.00;;;35.55;;
53036;SDS011;38924;52.134;4.666;2022-10-16T06:58:55;40.95;;;37.95;;
53036;SDS011;38924;52.134;4.666;2022-10-16T07:01:21;39.38;;;36.40;;
53036;SDS011;38924;52.134;4.666;2022-10-16T07:03:48;38.03;;;34.92;;
53036;SDS011;38924;52.134;4.666;2022-10-16T07:06:18;37.35;;;34.75;;
53036;SDS011;38924;52.134;4.666;2022-10-16T07:08:44;41.05;;;37.95;;
53036;SDS011;38924;52.134;4.666;2022-10-16T07:11:11;38.83;;;36.05;;
53036;SDS011;38924;52.134;4.666;2022-10-16T07:13:38;40.92;;;38.08;;
53036;SDS011;38924;52.134;4.666;2022-10-16T07:16:14;37.42;;;34.60;;
53036;SDS011;38924;52.134;4.666;2022-10-16T07:18:40;39.42;;;36.50;;
53036;SDS011;38924;52.134;4.666;2022-10-16T07:21:08;40.53;;;37.80;;
53036;SDS011;38924;52.134;4.666;2022-10-16T07:23:34;39.42;;;36.45;;
53036;SDS011;38924;52.134;4.666;2022-10-16T07:26:00;39.53;;;36.60;;
53036;SDS011;38924;52.134;4.666;2022-10-16T07:28:26;43.60;;;39.72;;
53036;SDS011;38924;52.134;4.666;2022-10-16T07:30:51;39.90;;;36.72;;
53036;SDS011;38924;52.134;4.666;2022-10-16T07:33:17;46.55;;;42.83;;
53036;SDS011;38924;52.134;4.666;2022-10-16T07:35:49;41.00;;;38.05;;
53036;SDS011;38924;52.134;4.666;2022-10-16T07:38:15;38.35;;;35.33;;
53036;SDS011;38924;52.134;4.666;2022-10-16T07:40:40;38.97;;;35.85;;
53036;SDS011;38924;52.134;4.666;2022-10-16T07:43:06;35.63;;;32.45;;
53036;SDS011;38924;52.134;4.666;2022-10-16T07:45:32;30.83;;;28.65;;
53036;SDS011;38924;52.134;4.666;2022-10-16T07:47:57;35.05;;;32.40;;
53036;SDS011;38924;52.134;4.666;2022-10-16T07:50:23;33.13;;;30.75;;
53036;SDS011;38924;52.134;4.666;2022-10-16T07:52:48;36.33;;;33.63;;
53036;SDS011;38924;52.134;4.666;2022-10-16T07:55:14;38.88;;;35.65;;
53036;SDS011;38924;52.134;4.666;2022-10-16T07:57:40;34.97;;;32.38;;
53036;SDS011;38924;52.134;4.666;2022-10-16T08:00:05;43.05;;;40.08;;
53036;SDS011;38924;52.134;4.666;2022-10-16T08:02:37;42.17;;;38.90;;
53036;SDS011;38924;52.134;4.666;2022-10-16T08:05:03;47.42;;;44.13;;
53036;SDS011;38924;52.134;4.666;2022-10-16T08:07:29;43.42;;;40.20;;
53036;SDS011;38924;52.134;4.666;2022-10-16T08:09:55;45.60;;;42.22;;
53036;SDS011;38924;52.134;4.666;2022-10-16T08:12:22;48.22;;;44.78;;
53036;SDS011;38924;52.134;4.666;2022-10-16T08:14:50;49.88;;;46.47;;
53036;SDS011;38924;52.134;4.666;2022-10-16T08:17:15;49.63;;;46.00;;
53036;SDS011;38924;52.134;4.666;2022-10-16T08:19:44;46.50;;;42.45;;
53036;SDS011;38924;52.134;4.666;2022-10-16T08:22:14;48.30;;;44.60;;
53036;SDS011;38924;52.134;4.666;2022-10-16T08:24:40;51.42;;;47.83;;
53036;SDS011;38924;52.134;4.666;2022-10-16T08:27:05;50.75;;;46.90;;
53036;SDS011;38924;52.134;4.666;2022-10-16T08:29:32;50.78;;;46.97;;
53036;SDS011;38924;52.134;4.666;2022-10-16T08:31:58;50.45;;;46.70;;
53036;SDS011;38924;52.134;4.666;2022-10-16T08:34:24;49.75;;;45.90;;
53036;SDS011;38924;52.134;4.666;2022-10-16T08:36:49;52.85;;;49.10;;
53036;SDS011;38924;52.134;4.666;2022-10-16T08:39:15;52.97;;;49.08;;
53036;SDS011;38924;52.134;4.666;2022-10-16T08:44:27;55.60;;;51.53;;
53036;SDS011;38924;52.134;4.666;2022-10-16T08:49:26;59.08;;;54.50;;
53036;SDS011;38924;52.134;4.666;2022-10-16T08:51:52;65.53;;;60.63;;
53036;SDS011;38924;52.134;4.666;2022-10-16T08:57:17;61.17;;;56.88;;
53036;SDS011;38924;52.134;4.666;2022-10-16T08:59:44;62.72;;;58.28;;
53036;SDS011;38924;52.134;4.666;2022-10-16T09:02:18;62.35;;;57.65;;
53036;SDS011;38924;52.134;4.666;2022-10-16T09:07:33;61.83;;;57.28;;
53036;SDS011;38924;52.134;4.666;2022-10-16T09:10:19;75.55;;;69.90;;
53036;SDS011;38924;52.134;4.666;2022-10-16T09:13:21;63.22;;;58.22;;
53036;SDS011;38924;52.134;4.666;2022-10-16T09:21:04;69.25;;;64.20;;
53036;SDS011;38924;52.134;4.666;2022-10-16T09:23:34;75.25;;;69.50;;
53036;SDS011;38924;52.134;4.666;2022-10-16T09:26:00;76.80;;;71.10;;
53036;SDS011;38924;52.134;4.666;2022-10-16T09:28:26;79.07;;;73.80;;
53036;SDS011;38924;52.134;4.666;2022-10-16T09:30:52;83.50;;;76.93;;
53036;SDS011;38924;52.134;4.666;2022-10-16T09:33:19;102.82;;;96.20;;
53036;SDS011;38924;52.134;4.666;2022-10-16T09:35:47;103.75;;;96.07;;
53036;SDS011;38924;52.134;4.666;2022-10-16T09:38:21;97.65;;;90.90;;
53036;SDS011;38924;52.134;4.666;2022-10-16T09:40:47;89.47;;;83.15;;
53036;SDS011;38924;52.134;4.666;2022-10-16T09:43:20;99.30;;;92.47;;
53036;SDS011;38924;52.134;4.666;2022-10-16T09:46:03;89.38;;;82.40;;
53036;SDS011;38924;52.134;4.666;2022-10-16T09:50:58;64.78;;;59.88;;
53036;SDS011;38924;52.134;4.666;2022-10-16T09:53:24;104.57;;;97.72;;
53036;SDS011;38924;52.134;4.666;2022-10-16T09:55:51;104.47;;;97.32;;
53036;SDS011;38924;52.134;4.666;2022-10-16T09:58:20;88.38;;;82.28;;
53036;SDS011;38924;52.134;4.666;2022-10-16T10:00:49;104.72;;;97.55;;
53036;SDS011;38924;52.134;4.666;2022-10-16T10:03:25;96.20;;;89.25;;
53036;SDS011;38924;52.134;4.666;2022-10-16T10:05:55;85.60;;;79.40;;
53036;SDS011;38924;52.134;4.666;2022-10-16T10:08:21;96.43;;;89.32;;
53036;SDS011;38924;52.134;4.666;2022-10-16T10:10:47;107.38;;;99.63;;
53036;SDS011;38924;52.134;4.666;2022-10-16T10:13:20;85.65;;;79.85;;
53036;SDS011;38924;52.134;4.666;2022-10-16T10:15:46;106.13;;;99.07;;
53036;SDS011;38924;52.134;4.666;2022-10-16T10:18:16;106.60;;;99.70;;
53036;SDS011;38924;52.134;4.666;2022-10-16T10:20:43;107.43;;;100.22;;
53036;SDS011;38924;52.134;4.666;2022-10-16T10:23:22;133.70;;;123.35;;
53036;SDS011;38924;52.134;4.666;2022-10-16T10:25:59;105.25;;;98.03;;
53036;SDS011;38924;52.134;4.666;2022-10-16T10:28:49;114.63;;;106.78;;
53036;SDS011;38924;52.134;4.666;2022-10-16T10:31:24;143.75;;;134.18;;
53036;SDS011;38924;52.134;4.666;2022-10-16T10:33:57;121.07;;;110.93;;
53036;SDS011;38924;52.134;4.666;2022-10-16T10:36:33;132.20;;;123.67;;
53036;SDS011;38924;52.134;4.666;2022-10-16T10:41:40;85.47;;;79.05;;
53036;SDS011;38924;52.134;4.666;2022-10-16T10:46:47;129.77;;;121.05;;
53036;SDS011;38924;52.134;4.666;2022-10-16T10:49:30;110.07;;;102.50;;
53036;SDS011;38924;52.134;4.666;2022-10-16T10:52:02;116.45;;;108.30;;
53036;SDS011;38924;52.134;4.666;2022-10-16T10:54:34;112.28;;;104.72;;
53036;SDS011;38924;52.134;4.666;2022-10-16T11:04:54;117.18;;;109.82;;
53036;SDS011;38924;52.134;4.666;2022-10-16T11:07:25;117.32;;;109.65;;
53036;SDS011;38924;52.134;4.666;2022-10-16T11:09:55;136.52;;;127.50;;
53036;SDS011;38924;52.134;4.666;2022-10-16T11:12:26;134.50;;;125.88;;
53036;SDS011;38924;52.134;4.666;2022-10-16T11:17:23;119.03;;;111.05;;
53036;SDS011;38924;52.134;4.666;2022-10-16T11:19:54;124.45;;;116.00;;
53036;SDS011;38924;52.134;4.666;2022-10-16T11:22:24;121.07;;;112.95;;
53036;SDS011;38924;52.134;4.666;2022-10-16T11:25:11;113.45;;;105.53;;
53036;SDS011;38924;52.134;4.666;2022-10-16T11:30:26;126.55;;;116.68;;
53036;SDS011;38924;52.134;4.666;2022-10-16T11:32:54;119.43;;;112.00;;
53036;SDS011;38924;52.134;4.666;2022-10-16T11:35:24;136.85;;;127.45;;
53036;SDS011;38924;52.134;4.666;2022-10-16T11:37:50;121.22;;;112.95;;
53036;SDS011;38924;52.134;4.666;2022-10-16T11:42:44;125.53;;;116.88;;
53036;SDS011;38924;52.134;4.666;2022-10-16T11:48:21;138.43;;;129.48;;
53036;SDS011;38924;52.134;4.666;2022-10-16T11:55:45;137.15;;;128.32;;
53036;SDS011;38924;52.134;4.666;2022-10-16T12:03:39;117.65;;;110.20;;
53036;SDS011;38924;52.134;4.666;2022-10-16T12:08:34;123.72;;;115.40;;
53036;SDS011;38924;52.134;4.666;2022-10-16T12:11:07;155.32;;;145.45;;
53036;SDS011;38924;52.134;4.666;2022-10-16T12:13:34;127.00;;;118.80;;
53036;SDS011;38924;52.134;4.666;2022-10-16T12:18:42;100.50;;;93.57;;
53036;SDS011;38924;52.134;4.666;2022-10-16T12:21:09;110.13;;;102.63;;
53036;SDS011;38924;52.134;4.666;2022-10-16T12:26:04;97.05;;;90.20;;
53036;SDS011;38924;52.134;4.666;2022-10-16T12:28:31;127.63;;;119.38;;
53036;SDS011;38924;52.134;4.666;2022-10-16T12:31:02;131.93;;;122.80;;
53036;SDS011;38924;52.134;4.666;2022-10-16T12:33:35;103.78;;;96.72;;
53036;SDS011;38924;52.134;4.666;2022-10-16T12:36:44;121.25;;;113.10;;
53036;SDS011;38924;52.134;4.666;2022-10-16T12:38:51;107.95;;;100.78;;
53036;SDS011;38924;52.134;4.666;2022-10-16T12:41:30;107.28;;;100.13;;
53036;SDS011;38924;52.134;4.666;2022-10-16T12:43:56;102.13;;;95.18;;
53036;SDS011;38924;52.134;4.666;2022-10-16T12:49:04;107.10;;;100.00;;
53036;SDS011;38924;52.134;4.666;2022-10-16T12:54:15;102.60;;;95.70;;
53036;SDS011;38924;52.134;4.666;2022-10-16T12:59:42;84.05;;;78.45;;
53036;SDS011;38924;52.134;4.666;2022-10-16T13:05:15;79.65;;;74.18;;
53036;SDS011;38924;52.134;4.666;2022-10-16T13:07:47;74.45;;;69.28;;
53036;SDS011;38924;52.134;4.666;2022-10-16T13:10:23;83.93;;;77.53;;
53036;SDS011;38924;52.134;4.666;2022-10-16T13:13:09;80.38;;;74.88;;
53036;SDS011;38924;52.134;4.666;2022-10-16T13:15:47;70.82;;;65.43;;
53036;SDS011;38924;52.134;4.666;2022-10-16T13:18:21;81.15;;;75.25;;
53036;SDS011;38924;52.134;4.666;2022-10-16T13:23:24;78.13;;;72.28;;
53036;SDS011;38924;52.134;4.666;2022-10-16T13:26:01;84.43;;;78.63;;
53036;SDS011;38924;52.134;4.666;2022-10-16T13:28:32;78.90;;;73.22;;
53036;SDS011;38924;52.134;4.666;2022-10-16T13:30:59;64.78;;;59.65;;
53036;SDS011;38924;52.134;4.666;2022-10-16T13:35:58;61.00;;;56.60;;
53036;SDS011;38924;52.134;4.666;2022-10-16T13:38:25;53.72;;;49.35;;
53036;SDS011;38924;52.134;4.666;2022-10-16T13:40:59;69.50;;;64.65;;
53036;SDS011;38924;52.134;4.666;2022-10-16T13:46:12;53.88;;;50.05;;
53036;SDS011;38924;52.134;4.666;2022-10-16T13:48:38;57.35;;;52.53;;
53036;SDS011;38924;52.134;4.666;2022-10-16T13:51:06;61.65;;;56.90;;
53036;SDS011;38924;52.134;4.666;2022-10-16T13:53:37;61.97;;;57.42;;
53036;SDS011;38924;52.134;4.666;2022-10-16T13:56:04;58.35;;;53.92;;
53036;SDS011;38924;52.134;4.666;2022-10-16T13:58:30;63.03;;;58.60;;
53036;SDS011;38924;52.134;4.666;2022-10-16T14:01:06;69.45;;;64.78;;
53036;SDS011;38924;52.134;4.666;2022-10-16T14:03:40;86.68;;;77.85;;
53036;SDS011;38924;52.134;4.666;2022-10-16T14:06:06;71.25;;;66.25;;
53036;SDS011;38924;52.134;4.666;2022-10-16T14:08:40;72.63;;;66.95;;
53036;SDS011;38924;52.134;4.666;2022-10-16T14:11:07;72.70;;;67.38;;
53036;SDS011;38924;52.134;4.666;2022-10-16T14:13:44;74.63;;;69.65;;
53036;SDS011;38924;52.134;4.666;2022-10-16T14:16:16;68.78;;;63.47;;
53036;SDS011;38924;52.134;4.666;2022-10-16T14:18:44;71.15;;;65.65;;
53036;SDS011;38924;52.134;4.666;2022-10-16T14:21:12;64.38;;;59.30;;
53036;SDS011;38924;52.134;4.666;2022-10-16T14:23:40;75.93;;;70.78;;
53036;SDS011;38924;52.134;4.666;2022-10-16T14:28:34;71.53;;;66.28;;
53036;SDS011;38924;52.134;4.666;2022-10-16T14:31:00;67.75;;;62.65;;
53036;SDS011;38924;52.134;4.666;2022-10-16T14:41:25;63.40;;;58.80;;
53036;SDS011;38924;52.134;4.666;2022-10-16T14:43:52;69.82;;;64.72;;
53036;SDS011;38924;52.134;4.666;2022-10-16T14:46:19;67.07;;;62.17;;
53036;SDS011;38924;52.134;4.666;2022-10-16T14:48:46;64.30;;;59.80;;
53036;SDS011;38924;52.134;4.666;2022-10-16T14:51:14;68.93;;;63.38;;
53036;SDS011;38924;52.134;4.666;2022-10-16T14:53:40;62.78;;;57.97;;
53036;SDS011;38924;52.134;4.666;2022-10-16T14:56:07;62.20;;;57.63;;
53036;SDS011;38924;52.134;4.666;2022-10-16T14:58:33;64.53;;;59.85;;
53036;SDS011;38924;52.134;4.666;2022-10-16T15:00:58;60.05;;;55.05;;
53036;SDS011;38924;52.134;4.666;2022-10-16T15:03:24;65.90;;;61.03;;
53036;SDS011;38924;52.134;4.666;2022-10-16T15:05:49;62.65;;;58.20;;
53036;SDS011;38924;52.134;4.666;2022-10-16T15:08:15;63.22;;;58.95;;
53036;SDS011;38924;52.134;4.666;2022-10-16T15:10:42;68.90;;;64.03;;
53036;SDS011;38924;52.134;4.666;2022-10-16T15:13:10;62.00;;;57.55;;
53036;SDS011;38924;52.134;4.666;2022-10-16T15:15:37;70.00;;;64.90;;
53036;SDS011;38924;52.134;4.666;2022-10-16T15:18:03;64.40;;;59.85;;
53036;SDS011;38924;52.134;4.666;2022-10-16T15:20:38;64.38;;;58.85;;
53036;SDS011;38924;52.134;4.666;2022-10-16T15:23:05;67.47;;;62.70;;
53036;SDS011;38924;52.134;4.666;2022-10-16T15:25:34;61.22;;;56.28;;
53036;SDS011;38924;52.134;4.666;2022-10-16T15:28:00;60.58;;;56.20;;
53036;SDS011;38924;52.134;4.666;2022-10-16T15:30:26;62.80;;;58.42;;
53036;SDS011;38924;52.134;4.666;2022-10-16T15:32:52;58.65;;;54.67;;
53036;SDS011;38924;52.134;4.666;2022-10-16T15:35:18;62.13;;;57.67;;
53036;SDS011;38924;52.134;4.666;2022-10-16T15:37:44;63.13;;;58.63;;
53036;SDS011;38924;52.134;4.666;2022-10-16T15:40:09;58.25;;;54.13;;
53036;SDS011;38924;52.134;4.666;2022-10-16T15:42:35;73.97;;;68.72;;
53036;SDS011;38924;52.134;4.666;2022-10-16T15:45:01;67.55;;;62.65;;
53036;SDS011;38924;52.134;4.666;2022-10-16T15:47:27;70.07;;;64.93;;
53036;SDS011;38924;52.134;4.666;2022-10-16T15:49:52;63.55;;;59.22;;
53036;SDS011;38924;52.134;4.666;2022-10-16T15:52:18;73.18;;;67.32;;
53036;SDS011;38924;52.134;4.666;2022-10-16T15:54:44;66.20;;;60.90;;
53036;SDS011;38924;52.134;4.666;2022-10-16T15:57:09;65.82;;;61.13;;
53036;SDS011;38924;52.134;4.666;2022-10-16T15:59:35;67.93;;;62.65;;
53036;SDS011;38924;52.134;4.666;2022-10-16T16:02:01;69.55;;;64.43;;
53036;SDS011;38924;52.134;4.666;2022-10-16T16:04:29;65.10;;;60.30;;
53036;SDS011;38924;52.134;4.666;2022-10-16T16:06:54;64.10;;;59.00;;
53036;SDS011;38924;52.134;4.666;2022-10-16T16:09:20;129.52;;;114.68;;
53036;SDS011;38924;52.134;4.666;2022-10-16T16:11:45;79.72;;;72.88;;